sensor_id;sensor_type;location;lat;lon;timestamp;temperature;humidity
9730;DHT22;4904;49.152;11.004;2023-05-08T00:00:08;15.70;99.90
9730;DHT22;4904;49.152;11.004;2023-05-08T00:02:35;15.70;99.90
9730;DHT22;4904;49.152;11.004;2023-05-08T00:05:04;15.70;99.90
9730;DHT22;4904;49.152;11.004;2023-05-08T00:07:32;15.70;99.90
9730;DHT22;4904;49.152;11.004;2023-05-08T00:09:59;15.60;99.90
9730;DHT22;4904;49.152;11.004;2023-05-08T00:12:26;15.70;99.90
9730;DHT22;4904;49.152;11.004;2023-05-08T00:14:53;15.70;99.90
9730;DHT22;4904;49.152;11.004;2023-05-08T00:17:19;15.70;99.90
9730;DHT22;4904;49.152;11.004;2023-05-08T00:19:47;15.70;99.90
9730;DHT22;4904;49.152;11.004;2023-05-08T00:22:15;15.60;99.90
9730;DHT22;4904;49.152;11.004;2023-05-08T00:24:42;15.70;99.90
9730;DHT22;4904;49.152;11.004;2023-05-08T00:27:09;15.60;99.90
9730;DHT22;4904;49.152;11.004;2023-05-08T00:29:36;15.50;99.90
9730;DHT22;4904;49.152;11.004;2023-05-08T00:32:05;15.60;99.90
9730;DHT22;4904;49.152;11.004;2023-05-08T00:34:31;15.60;99.90
9730;DHT22;4904;49.152;11.004;2023-05-08T00:36:58;15.60;99.90
9730;DHT22;4904;49.152;11.004;2023-05-08T00:39:27;15.60;99.90
9730;DHT22;4904;49.152;11.004;2023-05-08T00:41:53;15.60;99.90
9730;DHT22;4904;49.152;11.004;2023-05-08T00:44:20;15.60;99.90
9730;DHT22;4904;49.152;11.004;2023-05-08T00:46:47;15.60;99.90
9730;DHT22;4904;49.152;11.004;2023-05-08T00:49:15;15.30;99.90
9730;DHT22;4904;49.152;11.004;2023-05-08T00:51:43;15.40;99.90
9730;DHT22;4904;49.152;11.004;2023-05-08T00:54:10;15.30;99.90
9730;DHT22;4904;49.152;11.004;2023-05-08T00:56:39;15.40;99.90
9730;DHT22;4904;49.152;11.004;2023-05-08T00:59:08;15.40;99.90
9730;DHT22;4904;49.152;11.004;2023-05-08T01:01:37;15.50;99.90
9730;DHT22;4904;49.152;11.004;2023-05-08T01:04:05;15.40;99.90
9730;DHT22;4904;49.152;11.004;2023-05-08T01:06:32;15.40;99.90
9730;DHT22;4904;49.152;11.004;2023-05-08T01:09:01;15.30;99.90
9730;DHT22;4904;49.152;11.004;2023-05-08T01:11:33;15.10;99.90
9730;DHT22;4904;49.152;11.004;2023-05-08T01:14:09;15.10;99.90
9730;DHT22;4904;49.152;11.004;2023-05-08T01:16:43;15.10;99.90
9730;DHT22;4904;49.152;11.004;2023-05-08T01:19:37;15.00;99.90
9730;DHT22;4904;49.152;11.004;2023-05-08T01:22:17;15.00;99.90
9730;DHT22;4904;49.152;11.004;2023-05-08T01:25:03;14.90;99.90
9730;DHT22;4904;49.152;11.004;2023-05-08T01:27:46;14.60;99.90
9730;DHT22;4904;49.152;11.004;2023-05-08T01:30:53;14.40;99.90
9730;DHT22;4904;49.152;11.004;2023-05-08T01:33:31;14.10;99.90
9730;DHT22;4904;49.152;11.004;2023-05-08T01:36:09;13.50;99.90
9730;DHT22;4904;49.152;11.004;2023-05-08T01:38:41;12.70;99.90
9730;DHT22;4904;49.152;11.004;2023-05-08T01:41:15;12.70;99.90
9730;DHT22;4904;49.152;11.004;2023-05-08T01:43:49;12.40;99.90
9730;DHT22;4904;49.152;11.004;2023-05-08T01:46:21;12.30;99.90
9730;DHT22;4904;49.152;11.004;2023-05-08T01:48:58;12.50;99.90
9730;DHT22;4904;49.152;11.004;2023-05-08T01:51:27;12.50;99.90
9730;DHT22;4904;49.152;11.004;2023-05-08T01:54:03;12.70;99.90
9730;DHT22;4904;49.152;11.004;2023-05-08T01:56:31;12.60;99.90
9730;DHT22;4904;49.152;11.004;2023-05-08T01:58:59;12.80;99.90
9730;DHT22;4904;49.152;11.004;2023-05-08T02:01:28;12.90;99.90
9730;DHT22;4904;49.152;11.004;2023-05-08T02:03:59;13.00;99.90
9730;DHT22;4904;49.152;11.004;2023-05-08T02:06:27;13.10;99.90
9730;DHT22;4904;49.152;11.004;2023-05-08T02:08:55;13.20;99.90
9730;DHT22;4904;49.152;11.004;2023-05-08T02:11:23;13.20;99.90
9730;DHT22;4904;49.152;11.004;2023-05-08T02:13:51;13.20;99.90
9730;DHT22;4904;49.152;11.004;2023-05-08T02:16:19;13.20;99.90
9730;DHT22;4904;49.152;11.004;2023-05-08T02:18:50;13.40;99.90
9730;DHT22;4904;49.152;11.004;2023-05-08T02:21:19;13.40;99.90
9730;DHT22;4904;49.152;11.004;2023-05-08T02:23:48;13.50;99.90
9730;DHT22;4904;49.152;11.004;2023-05-08T02:26:16;13.50;99.90
9730;DHT22;4904;49.152;11.004;2023-05-08T02:28:43;13.60;99.90
9730;DHT22;4904;49.152;11.004;2023-05-08T02:31:11;13.50;99.90
9730;DHT22;4904;49.152;11.004;2023-05-08T02:33:40;13.50;99.90
9730;DHT22;4904;49.152;11.004;2023-05-08T02:36:10;13.50;99.90
9730;DHT22;4904;49.152;11.004;2023-05-08T02:38:43;13.30;99.90
9730;DHT22;4904;49.152;11.004;2023-05-08T02:41:12;13.30;99.90
9730;DHT22;4904;49.152;11.004;2023-05-08T02:43:39;13.30;99.90
9730;DHT22;4904;49.152;11.004;2023-05-08T02:46:13;13.30;99.90
9730;DHT22;4904;49.152;11.004;2023-05-08T02:48:46;13.20;99.90
9730;DHT22;4904;49.152;11.004;2023-05-08T02:51:19;13.30;99.90
9730;DHT22;4904;49.152;11.004;2023-05-08T02:53:53;13.30;99.90
9730;DHT22;4904;49.152;11.004;2023-05-08T02:56:31;13.30;99.90
9730;DHT22;4904;49.152;11.004;2023-05-08T02:59:09;13.30;99.90
9730;DHT22;4904;49.152;11.004;2023-05-08T03:01:47;13.30;99.90
9730;DHT22;4904;49.152;11.004;2023-05-08T03:04:23;13.40;99.90
9730;DHT22;4904;49.152;11.004;2023-05-08T03:06:53;13.30;99.90
9730;DHT22;4904;49.152;11.004;2023-05-08T03:09:27;13.30;99.90
9730;DHT22;4904;49.152;11.004;2023-05-08T03:12:00;13.30;99.90
9730;DHT22;4904;49.152;11.004;2023-05-08T03:14:31;13.20;99.90
9730;DHT22;4904;49.152;11.004;2023-05-08T03:17:02;13.20;99.90
9730;DHT22;4904;49.152;11.004;2023-05-08T03:19:33;13.20;99.90
9730;DHT22;4904;49.152;11.004;2023-05-08T03:22:02;13.20;99.90
9730;DHT22;4904;49.152;11.004;2023-05-08T03:24:33;13.30;99.90
9730;DHT22;4904;49.152;11.004;2023-05-08T03:27:02;13.20;99.90
9730;DHT22;4904;49.152;11.004;2023-05-08T03:29:31;13.20;99.90
9730;DHT22;4904;49.152;11.004;2023-05-08T03:31:59;13.20;99.90
9730;DHT22;4904;49.152;11.004;2023-05-08T03:34:29;13.10;99.90
9730;DHT22;4904;49.152;11.004;2023-05-08T03:36:56;12.90;99.90
9730;DHT22;4904;49.152;11.004;2023-05-08T03:39:24;12.90;99.90
9730;DHT22;4904;49.152;11.004;2023-05-08T03:41:53;12.90;99.90
9730;DHT22;4904;49.152;11.004;2023-05-08T03:44:21;13.00;99.90
9730;DHT22;4904;49.152;11.004;2023-05-08T03:46:50;13.00;99.90
9730;DHT22;4904;49.152;11.004;2023-05-08T03:49:19;12.90;99.90
9730;DHT22;4904;49.152;11.004;2023-05-08T03:51:48;12.90;99.90
9730;DHT22;4904;49.152;11.004;2023-05-08T03:54:15;12.80;99.90
9730;DHT22;4904;49.152;11.004;2023-05-08T03:56:42;12.90;99.90
9730;DHT22;4904;49.152;11.004;2023-05-08T03:59:15;12.90;99.90
9730;DHT22;4904;49.152;11.004;2023-05-08T04:01:50;12.80;99.90
9730;DHT22;4904;49.152;11.004;2023-05-08T04:04:24;12.80;99.90
9730;DHT22;4904;49.152;11.004;2023-05-08T04:06:58;12.80;99.90
9730;DHT22;4904;49.152;11.004;2023-05-08T04:09:33;12.80;99.90
9730;DHT22;4904;49.152;11.004;2023-05-08T04:12:04;12.70;99.90
9730;DHT22;4904;49.152;11.004;2023-05-08T04:14:35;12.70;99.90
9730;DHT22;4904;49.152;11.004;2023-05-08T04:17:06;12.70;99.90
9730;DHT22;4904;49.152;11.004;2023-05-08T04:19:37;12.70;99.90
9730;DHT22;4904;49.152;11.004;2023-05-08T04:22:07;12.70;99.90
9730;DHT22;4904;49.152;11.004;2023-05-08T04:24:38;12.70;99.90
9730;DHT22;4904;49.152;11.004;2023-05-08T04:27:06;12.60;99.90
9730;DHT22;4904;49.152;11.004;2023-05-08T04:29:36;12.70;99.90
9730;DHT22;4904;49.152;11.004;2023-05-08T04:32:04;12.60;99.90
9730;DHT22;4904;49.152;11.004;2023-05-08T04:34:32;12.70;99.90
9730;DHT22;4904;49.152;11.004;2023-05-08T04:36:58;12.70;99.90
9730;DHT22;4904;49.152;11.004;2023-05-08T04:39:25;12.70;99.90
9730;DHT22;4904;49.152;11.004;2023-05-08T04:41:52;12.70;99.90
9730;DHT22;4904;49.152;11.004;2023-05-08T04:44:20;12.70;99.90
9730;DHT22;4904;49.152;11.004;2023-05-08T04:46:48;12.70;99.90
9730;DHT22;4904;49.152;11.004;2023-05-08T04:49:15;12.80;99.90
9730;DHT22;4904;49.152;11.004;2023-05-08T04:51:42;12.80;99.90
9730;DHT22;4904;49.152;11.004;2023-05-08T04:54:09;12.80;99.90
9730;DHT22;4904;49.152;11.004;2023-05-08T04:56:36;12.80;99.90
9730;DHT22;4904;49.152;11.004;2023-05-08T04:59:02;12.80;99.90
9730;DHT22;4904;49.152;11.004;2023-05-08T05:01:29;12.90;99.90
9730;DHT22;4904;49.152;11.004;2023-05-08T05:03:57;12.90;99.90
9730;DHT22;4904;49.152;11.004;2023-05-08T05:06:24;12.90;99.90
9730;DHT22;4904;49.152;11.004;2023-05-08T05:08:52;12.90;99.90
9730;DHT22;4904;49.152;11.004;2023-05-08T05:11:18;13.00;99.90
9730;DHT22;4904;49.152;11.004;2023-05-08T05:13:45;12.90;99.90
9730;DHT22;4904;49.152;11.004;2023-05-08T05:16:12;13.00;99.90
9730;DHT22;4904;49.152;11.004;2023-05-08T05:18:39;13.00;99.90
9730;DHT22;4904;49.152;11.004;2023-05-08T05:21:07;13.00;99.90
9730;DHT22;4904;49.152;11.004;2023-05-08T05:23:35;13.00;99.90
9730;DHT22;4904;49.152;11.004;2023-05-08T05:26:02;13.10;99.90
9730;DHT22;4904;49.152;11.004;2023-05-08T05:28:30;13.10;99.90
9730;DHT22;4904;49.152;11.004;2023-05-08T05:30:57;13.10;99.90
9730;DHT22;4904;49.152;11.004;2023-05-08T05:33:23;13.10;99.90
9730;DHT22;4904;49.152;11.004;2023-05-08T05:35:50;13.10;99.90
9730;DHT22;4904;49.152;11.004;2023-05-08T05:38:19;13.20;99.90
9730;DHT22;4904;49.152;11.004;2023-05-08T05:40:46;13.20;99.90
9730;DHT22;4904;49.152;11.004;2023-05-08T05:43:12;13.20;99.90
9730;DHT22;4904;49.152;11.004;2023-05-08T05:45:39;13.20;99.90
9730;DHT22;4904;49.152;11.004;2023-05-08T05:48:06;13.20;99.90
9730;DHT22;4904;49.152;11.004;2023-05-08T05:50:33;13.20;99.90
9730;DHT22;4904;49.152;11.004;2023-05-08T05:53:02;13.20;99.90
9730;DHT22;4904;49.152;11.004;2023-05-08T05:55:30;13.20;99.90
9730;DHT22;4904;49.152;11.004;2023-05-08T05:57:57;13.10;99.90
9730;DHT22;4904;49.152;11.004;2023-05-08T06:00:24;13.40;99.90
9730;DHT22;4904;49.152;11.004;2023-05-08T06:02:52;13.40;99.90
9730;DHT22;4904;49.152;11.004;2023-05-08T06:05:18;13.50;99.90
9730;DHT22;4904;49.152;11.004;2023-05-08T06:07:45;13.60;99.90
9730;DHT22;4904;49.152;11.004;2023-05-08T06:10:12;13.60;99.90
9730;DHT22;4904;49.152;11.004;2023-05-08T06:12:40;13.60;99.90
9730;DHT22;4904;49.152;11.004;2023-05-08T06:15:08;13.70;99.90
9730;DHT22;4904;49.152;11.004;2023-05-08T06:17:35;13.70;99.90
9730;DHT22;4904;49.152;11.004;2023-05-08T06:20:02;13.70;99.90
9730;DHT22;4904;49.152;11.004;2023-05-08T06:22:29;13.80;99.90
9730;DHT22;4904;49.152;11.004;2023-05-08T06:24:56;13.90;99.90
9730;DHT22;4904;49.152;11.004;2023-05-08T06:27:23;13.90;99.90
9730;DHT22;4904;49.152;11.004;2023-05-08T06:29:51;14.00;99.90
9730;DHT22;4904;49.152;11.004;2023-05-08T06:32:18;14.00;99.90
9730;DHT22;4904;49.152;11.004;2023-05-08T06:34:45;14.00;99.90
9730;DHT22;4904;49.152;11.004;2023-05-08T06:37:12;14.10;99.90
9730;DHT22;4904;49.152;11.004;2023-05-08T06:39:39;14.20;99.90
9730;DHT22;4904;49.152;11.004;2023-05-08T06:42:06;14.30;99.90
9730;DHT22;4904;49.152;11.004;2023-05-08T06:44:33;14.30;99.90
9730;DHT22;4904;49.152;11.004;2023-05-08T06:47:01;14.30;99.90
9730;DHT22;4904;49.152;11.004;2023-05-08T06:49:28;14.40;99.90
9730;DHT22;4904;49.152;11.004;2023-05-08T06:51:56;14.40;99.90
9730;DHT22;4904;49.152;11.004;2023-05-08T06:54:23;14.50;99.90
9730;DHT22;4904;49.152;11.004;2023-05-08T06:56:51;14.60;99.90
9730;DHT22;4904;49.152;11.004;2023-05-08T06:59:18;14.70;99.90
9730;DHT22;4904;49.152;11.004;2023-05-08T07:01:45;14.70;99.90
9730;DHT22;4904;49.152;11.004;2023-05-08T07:04:14;14.70;99.90
9730;DHT22;4904;49.152;11.004;2023-05-08T07:06:40;14.80;99.90
9730;DHT22;4904;49.152;11.004;2023-05-08T07:09:07;14.90;99.90
9730;DHT22;4904;49.152;11.004;2023-05-08T07:11:35;15.00;99.90
9730;DHT22;4904;49.152;11.004;2023-05-08T07:14:02;15.00;99.90
9730;DHT22;4904;49.152;11.004;2023-05-08T07:16:29;15.00;99.90
9730;DHT22;4904;49.152;11.004;2023-05-08T07:18:56;14.90;99.90
9730;DHT22;4904;49.152;11.004;2023-05-08T07:21:24;14.80;99.90
9730;DHT22;4904;49.152;11.004;2023-05-08T07:23:51;14.90;99.90
9730;DHT22;4904;49.152;11.004;2023-05-08T07:26:19;15.00;99.90
9730;DHT22;4904;49.152;11.004;2023-05-08T07:28:46;15.20;99.90
9730;DHT22;4904;49.152;11.004;2023-05-08T07:31:13;15.20;99.90
9730;DHT22;4904;49.152;11.004;2023-05-08T07:33:40;15.20;99.90
9730;DHT22;4904;49.152;11.004;2023-05-08T07:36:07;15.20;99.90
9730;DHT22;4904;49.152;11.004;2023-05-08T07:38:35;15.20;99.90
9730;DHT22;4904;49.152;11.004;2023-05-08T07:41:02;15.20;99.90
9730;DHT22;4904;49.152;11.004;2023-05-08T07:43:29;15.20;99.90
9730;DHT22;4904;49.152;11.004;2023-05-08T07:45:57;15.40;99.90
9730;DHT22;4904;49.152;11.004;2023-05-08T07:48:24;15.50;99.90
9730;DHT22;4904;49.152;11.004;2023-05-08T07:50:51;15.50;99.90
9730;DHT22;4904;49.152;11.004;2023-05-08T07:53:18;15.60;99.90
9730;DHT22;4904;49.152;11.004;2023-05-08T07:55:46;15.60;99.90
9730;DHT22;4904;49.152;11.004;2023-05-08T07:58:13;15.60;99.90
9730;DHT22;4904;49.152;11.004;2023-05-08T08:00:40;15.70;99.90
9730;DHT22;4904;49.152;11.004;2023-05-08T08:03:07;15.80;99.90
9730;DHT22;4904;49.152;11.004;2023-05-08T08:05:34;15.90;99.90
9730;DHT22;4904;49.152;11.004;2023-05-08T08:08:00;16.00;99.90
9730;DHT22;4904;49.152;11.004;2023-05-08T08:10:27;16.00;99.90
9730;DHT22;4904;49.152;11.004;2023-05-08T08:12:55;16.00;99.90
9730;DHT22;4904;49.152;11.004;2023-05-08T08:15:22;16.20;99.90
9730;DHT22;4904;49.152;11.004;2023-05-08T08:17:49;16.30;99.90
9730;DHT22;4904;49.152;11.004;2023-05-08T08:20:16;16.30;99.90
9730;DHT22;4904;49.152;11.004;2023-05-08T08:22:43;16.40;99.90
9730;DHT22;4904;49.152;11.004;2023-05-08T08:25:10;16.50;99.90
9730;DHT22;4904;49.152;11.004;2023-05-08T08:27:36;16.50;99.90
9730;DHT22;4904;49.152;11.004;2023-05-08T08:30:06;16.70;99.90
9730;DHT22;4904;49.152;11.004;2023-05-08T08:32:33;16.70;99.90
9730;DHT22;4904;49.152;11.004;2023-05-08T08:35:00;16.80;99.90
9730;DHT22;4904;49.152;11.004;2023-05-08T08:37:28;16.80;99.90
9730;DHT22;4904;49.152;11.004;2023-05-08T08:39:55;16.90;99.90
9730;DHT22;4904;49.152;11.004;2023-05-08T08:42:22;16.90;99.90
9730;DHT22;4904;49.152;11.004;2023-05-08T08:44:49;16.80;99.90
9730;DHT22;4904;49.152;11.004;2023-05-08T08:47:18;16.70;99.90
9730;DHT22;4904;49.152;11.004;2023-05-08T08:49:49;16.70;99.90
9730;DHT22;4904;49.152;11.004;2023-05-08T08:52:21;16.80;99.90
9730;DHT22;4904;49.152;11.004;2023-05-08T08:54:54;16.90;99.90
9730;DHT22;4904;49.152;11.004;2023-05-08T08:57:22;16.90;99.90
9730;DHT22;4904;49.152;11.004;2023-05-08T08:59:52;16.80;99.90
9730;DHT22;4904;49.152;11.004;2023-05-08T09:02:22;16.70;99.90
9730;DHT22;4904;49.152;11.004;2023-05-08T09:04:50;16.50;99.90
9730;DHT22;4904;49.152;11.004;2023-05-08T09:07:17;16.40;99.90
9730;DHT22;4904;49.152;11.004;2023-05-08T09:09:45;16.30;99.90
9730;DHT22;4904;49.152;11.004;2023-05-08T09:12:13;16.20;99.90
9730;DHT22;4904;49.152;11.004;2023-05-08T09:14:40;16.30;99.90
9730;DHT22;4904;49.152;11.004;2023-05-08T09:17:07;16.50;99.90
9730;DHT22;4904;49.152;11.004;2023-05-08T09:19:36;16.60;99.90
9730;DHT22;4904;49.152;11.004;2023-05-08T09:22:03;16.80;99.90
9730;DHT22;4904;49.152;11.004;2023-05-08T09:24:53;16.90;99.90
9730;DHT22;4904;49.152;11.004;2023-05-08T09:27:21;17.00;99.90
9730;DHT22;4904;49.152;11.004;2023-05-08T09:29:59;17.10;99.90
9730;DHT22;4904;49.152;11.004;2023-05-08T09:32:27;17.20;99.90
9730;DHT22;4904;49.152;11.004;2023-05-08T09:34:56;17.20;99.90
9730;DHT22;4904;49.152;11.004;2023-05-08T09:37:24;17.20;99.90
9730;DHT22;4904;49.152;11.004;2023-05-08T09:39:51;17.20;99.90
9730;DHT22;4904;49.152;11.004;2023-05-08T09:42:18;17.30;99.90
9730;DHT22;4904;49.152;11.004;2023-05-08T09:44:46;17.30;99.90
9730;DHT22;4904;49.152;11.004;2023-05-08T09:47:16;17.30;99.90
9730;DHT22;4904;49.152;11.004;2023-05-08T09:49:58;17.40;99.90
9730;DHT22;4904;49.152;11.004;2023-05-08T09:52:26;17.30;99.90
9730;DHT22;4904;49.152;11.004;2023-05-08T09:54:56;17.20;99.90
9730;DHT22;4904;49.152;11.004;2023-05-08T09:57:24;17.20;99.90
9730;DHT22;4904;49.152;11.004;2023-05-08T09:59:59;17.20;99.90
9730;DHT22;4904;49.152;11.004;2023-05-08T10:02:26;17.30;99.90
9730;DHT22;4904;49.152;11.004;2023-05-08T10:04:53;17.40;99.90
9730;DHT22;4904;49.152;11.004;2023-05-08T10:07:34;17.40;99.90
9730;DHT22;4904;49.152;11.004;2023-05-08T10:10:02;17.40;99.90
9730;DHT22;4904;49.152;11.004;2023-05-08T10:12:31;17.40;99.90
9730;DHT22;4904;49.152;11.004;2023-05-08T10:14:58;17.40;99.90
9730;DHT22;4904;49.152;11.004;2023-05-08T10:17:26;17.30;99.90
9730;DHT22;4904;49.152;11.004;2023-05-08T10:19:58;17.30;99.90
9730;DHT22;4904;49.152;11.004;2023-05-08T10:22:27;17.40;99.90
9730;DHT22;4904;49.152;11.004;2023-05-08T10:24:57;17.40;99.90
9730;DHT22;4904;49.152;11.004;2023-05-08T10:27:34;17.40;99.90
9730;DHT22;4904;49.152;11.004;2023-05-08T10:30:06;17.30;99.90
9730;DHT22;4904;49.152;11.004;2023-05-08T10:32:37;17.30;99.90
9730;DHT22;4904;49.152;11.004;2023-05-08T10:35:08;17.30;99.90
9730;DHT22;4904;49.152;11.004;2023-05-08T10:37:37;17.40;99.90
9730;DHT22;4904;49.152;11.004;2023-05-08T10:40:07;17.50;99.90
9730;DHT22;4904;49.152;11.004;2023-05-08T10:42:34;17.50;99.90
9730;DHT22;4904;49.152;11.004;2023-05-08T10:45:03;17.60;99.90
9730;DHT22;4904;49.152;11.004;2023-05-08T10:47:40;17.60;99.90
9730;DHT22;4904;49.152;11.004;2023-05-08T10:50:17;17.40;99.90
9730;DHT22;4904;49.152;11.004;2023-05-08T10:52:49;17.40;99.90
9730;DHT22;4904;49.152;11.004;2023-05-08T10:55:22;17.60;99.90
9730;DHT22;4904;49.152;11.004;2023-05-08T10:58:04;17.60;99.90
9730;DHT22;4904;49.152;11.004;2023-05-08T11:00:33;17.70;99.90
9730;DHT22;4904;49.152;11.004;2023-05-08T11:03:22;17.70;99.90
9730;DHT22;4904;49.152;11.004;2023-05-08T11:05:50;17.80;99.90
9730;DHT22;4904;49.152;11.004;2023-05-08T11:08:19;17.70;99.90
9730;DHT22;4904;49.152;11.004;2023-05-08T11:10:51;17.80;99.90
9730;DHT22;4904;49.152;11.004;2023-05-08T11:13:32;17.80;99.90
9730;DHT22;4904;49.152;11.004;2023-05-08T11:15:59;17.70;99.90
9730;DHT22;4904;49.152;11.004;2023-05-08T11:18:27;17.80;99.90
9730;DHT22;4904;49.152;11.004;2023-05-08T11:20:56;17.90;99.90
9730;DHT22;4904;49.152;11.004;2023-05-08T11:23:24;17.90;99.90
9730;DHT22;4904;49.152;11.004;2023-05-08T11:26:00;17.90;99.90
9730;DHT22;4904;49.152;11.004;2023-05-08T11:28:30;18.00;99.90
9730;DHT22;4904;49.152;11.004;2023-05-08T11:31:02;17.90;99.90
9730;DHT22;4904;49.152;11.004;2023-05-08T11:33:30;18.00;99.90
9730;DHT22;4904;49.152;11.004;2023-05-08T11:35:58;18.00;99.90
9730;DHT22;4904;49.152;11.004;2023-05-08T11:38:31;18.10;99.90
9730;DHT22;4904;49.152;11.004;2023-05-08T11:41:07;18.10;99.90
9730;DHT22;4904;49.152;11.004;2023-05-08T11:43:57;18.10;99.90
9730;DHT22;4904;49.152;11.004;2023-05-08T11:46:37;18.00;99.90
9730;DHT22;4904;49.152;11.004;2023-05-08T11:49:09;18.00;99.90
9730;DHT22;4904;49.152;11.004;2023-05-08T11:51:36;18.20;99.90
9730;DHT22;4904;49.152;11.004;2023-05-08T11:54:04;18.00;99.90
9730;DHT22;4904;49.152;11.004;2023-05-08T11:56:32;18.10;99.90
9730;DHT22;4904;49.152;11.004;2023-05-08T11:59:03;18.20;99.90
9730;DHT22;4904;49.152;11.004;2023-05-08T12:01:31;18.40;99.90
9730;DHT22;4904;49.152;11.004;2023-05-08T12:04:02;18.40;99.90
9730;DHT22;4904;49.152;11.004;2023-05-08T12:06:29;18.40;99.90
9730;DHT22;4904;49.152;11.004;2023-05-08T12:08:57;18.40;99.90
9730;DHT22;4904;49.152;11.004;2023-05-08T12:11:24;18.50;99.90
9730;DHT22;4904;49.152;11.004;2023-05-08T12:13:53;18.50;99.90
9730;DHT22;4904;49.152;11.004;2023-05-08T12:16:22;18.60;99.90
9730;DHT22;4904;49.152;11.004;2023-05-08T12:18:50;18.60;99.90
9730;DHT22;4904;49.152;11.004;2023-05-08T12:21:17;18.70;99.90
9730;DHT22;4904;49.152;11.004;2023-05-08T12:23:45;18.80;99.90
9730;DHT22;4904;49.152;11.004;2023-05-08T12:26:12;18.90;99.90
9730;DHT22;4904;49.152;11.004;2023-05-08T12:28:43;18.90;99.90
9730;DHT22;4904;49.152;11.004;2023-05-08T12:31:12;19.00;99.90
9730;DHT22;4904;49.152;11.004;2023-05-08T12:33:39;18.90;99.90
9730;DHT22;4904;49.152;11.004;2023-05-08T12:36:07;19.00;99.90
9730;DHT22;4904;49.152;11.004;2023-05-08T12:38:34;19.00;99.90
9730;DHT22;4904;49.152;11.004;2023-05-08T12:41:02;19.00;99.90
9730;DHT22;4904;49.152;11.004;2023-05-08T12:43:32;19.00;99.90
9730;DHT22;4904;49.152;11.004;2023-05-08T12:46:00;18.80;99.90
9730;DHT22;4904;49.152;11.004;2023-05-08T12:48:28;18.80;99.90
9730;DHT22;4904;49.152;11.004;2023-05-08T12:51:01;19.00;99.90
9730;DHT22;4904;49.152;11.004;2023-05-08T12:53:29;19.00;99.90
9730;DHT22;4904;49.152;11.004;2023-05-08T12:56:00;19.10;99.90
9730;DHT22;4904;49.152;11.004;2023-05-08T12:58:30;19.10;99.90
9730;DHT22;4904;49.152;11.004;2023-05-08T13:01:05;19.10;99.90
9730;DHT22;4904;49.152;11.004;2023-05-08T13:03:36;19.20;99.90
9730;DHT22;4904;49.152;11.004;2023-05-08T13:06:03;19.10;99.90
9730;DHT22;4904;49.152;11.004;2023-05-08T13:08:31;19.20;99.90
9730;DHT22;4904;49.152;11.004;2023-05-08T13:10:59;19.20;99.90
9730;DHT22;4904;49.152;11.004;2023-05-08T13:13:28;19.20;99.90
9730;DHT22;4904;49.152;11.004;2023-05-08T13:15:56;19.20;99.90
9730;DHT22;4904;49.152;11.004;2023-05-08T13:18:25;19.20;99.90
9730;DHT22;4904;49.152;11.004;2023-05-08T13:20:53;19.30;99.90
9730;DHT22;4904;49.152;11.004;2023-05-08T13:23:21;19.20;99.90
9730;DHT22;4904;49.152;11.004;2023-05-08T13:25:48;19.20;99.90
9730;DHT22;4904;49.152;11.004;2023-05-08T13:28:16;19.20;99.90
9730;DHT22;4904;49.152;11.004;2023-05-08T13:30:43;19.30;99.90
9730;DHT22;4904;49.152;11.004;2023-05-08T13:33:10;19.30;99.90
9730;DHT22;4904;49.152;11.004;2023-05-08T13:35:37;19.20;99.90
9730;DHT22;4904;49.152;11.004;2023-05-08T13:38:05;19.20;99.90
9730;DHT22;4904;49.152;11.004;2023-05-08T13:40:32;19.20;99.90
9730;DHT22;4904;49.152;11.004;2023-05-08T13:42:59;19.30;99.90
9730;DHT22;4904;49.152;11.004;2023-05-08T13:45:26;19.30;99.90
9730;DHT22;4904;49.152;11.004;2023-05-08T13:47:53;19.30;99.90
9730;DHT22;4904;49.152;11.004;2023-05-08T13:50:20;19.30;99.90
9730;DHT22;4904;49.152;11.004;2023-05-08T13:52:48;19.40;99.90
9730;DHT22;4904;49.152;11.004;2023-05-08T13:55:16;19.50;99.90
9730;DHT22;4904;49.152;11.004;2023-05-08T13:57:45;19.60;99.90
9730;DHT22;4904;49.152;11.004;2023-05-08T14:00:14;19.60;99.90
9730;DHT22;4904;49.152;11.004;2023-05-08T14:02:41;19.50;99.90
9730;DHT22;4904;49.152;11.004;2023-05-08T14:05:08;19.40;99.90
9730;DHT22;4904;49.152;11.004;2023-05-08T14:07:35;19.40;99.90
9730;DHT22;4904;49.152;11.004;2023-05-08T14:10:02;19.30;99.90
9730;DHT22;4904;49.152;11.004;2023-05-08T14:12:31;19.30;99.90
9730;DHT22;4904;49.152;11.004;2023-05-08T14:15:01;19.20;99.90
9730;DHT22;4904;49.152;11.004;2023-05-08T14:17:28;19.20;99.90
9730;DHT22;4904;49.152;11.004;2023-05-08T14:19:55;19.20;99.90
9730;DHT22;4904;49.152;11.004;2023-05-08T14:22:22;19.30;99.90
9730;DHT22;4904;49.152;11.004;2023-05-08T14:24:49;19.30;99.90
9730;DHT22;4904;49.152;11.004;2023-05-08T14:27:16;19.30;99.90
9730;DHT22;4904;49.152;11.004;2023-05-08T14:29:44;19.30;99.90
9730;DHT22;4904;49.152;11.004;2023-05-08T14:32:11;19.30;99.90
9730;DHT22;4904;49.152;11.004;2023-05-08T14:34:38;19.30;99.90
9730;DHT22;4904;49.152;11.004;2023-05-08T14:37:05;19.30;99.90
9730;DHT22;4904;49.152;11.004;2023-05-08T14:39:32;19.40;99.90
9730;DHT22;4904;49.152;11.004;2023-05-08T14:42:00;19.40;99.90
9730;DHT22;4904;49.152;11.004;2023-05-08T14:44:27;19.30;99.90
9730;DHT22;4904;49.152;11.004;2023-05-08T14:46:55;19.30;99.90
9730;DHT22;4904;49.152;11.004;2023-05-08T14:49:22;19.10;99.90
9730;DHT22;4904;49.152;11.004;2023-05-08T14:51:49;19.10;99.90
9730;DHT22;4904;49.152;11.004;2023-05-08T14:54:16;19.20;99.90
9730;DHT22;4904;49.152;11.004;2023-05-08T14:56:44;19.30;99.90
9730;DHT22;4904;49.152;11.004;2023-05-08T14:59:11;19.40;99.90
9730;DHT22;4904;49.152;11.004;2023-05-08T15:01:38;19.40;99.90
9730;DHT22;4904;49.152;11.004;2023-05-08T15:04:09;19.10;99.90
9730;DHT22;4904;49.152;11.004;2023-05-08T15:06:36;19.10;99.90
9730;DHT22;4904;49.152;11.004;2023-05-08T15:09:05;19.20;99.90
9730;DHT22;4904;49.152;11.004;2023-05-08T15:11:33;19.20;99.90
9730;DHT22;4904;49.152;11.004;2023-05-08T15:14:00;19.30;99.90
9730;DHT22;4904;49.152;11.004;2023-05-08T15:16:27;19.30;99.90
9730;DHT22;4904;49.152;11.004;2023-05-08T15:18:54;19.20;99.90
9730;DHT22;4904;49.152;11.004;2023-05-08T15:21:23;19.20;99.90
9730;DHT22;4904;49.152;11.004;2023-05-08T15:23:52;19.10;99.90
9730;DHT22;4904;49.152;11.004;2023-05-08T15:26:19;18.90;99.90
9730;DHT22;4904;49.152;11.004;2023-05-08T15:28:46;18.90;99.90
9730;DHT22;4904;49.152;11.004;2023-05-08T15:31:13;18.90;99.90
9730;DHT22;4904;49.152;11.004;2023-05-08T15:33:40;19.00;99.90
9730;DHT22;4904;49.152;11.004;2023-05-08T15:36:09;19.00;99.90
9730;DHT22;4904;49.152;11.004;2023-05-08T15:38:38;18.80;99.90
9730;DHT22;4904;49.152;11.004;2023-05-08T15:41:05;18.90;99.90
9730;DHT22;4904;49.152;11.004;2023-05-08T15:43:32;18.80;99.90
9730;DHT22;4904;49.152;11.004;2023-05-08T15:45:59;18.90;99.90
9730;DHT22;4904;49.152;11.004;2023-05-08T15:48:26;19.00;99.90
9730;DHT22;4904;49.152;11.004;2023-05-08T15:50:53;19.00;99.90
9730;DHT22;4904;49.152;11.004;2023-05-08T15:53:20;19.00;99.90
9730;DHT22;4904;49.152;11.004;2023-05-08T15:55:49;19.10;99.90